Terminal Aerodrome Forecast
Issued by NWS

Home | Current Version | Previous Version | Text Only | Print | Product List | Glossary On
Versions: 1 2 3 4 5 6 7 8 9 10 11 12 13 14 15 16 17 18 19
151
FTUS43 KDTX 160520
TAFMBS
TAF
KMBS 160520Z 1606/1706 05004KT P6SM -SHSN BKN045
     FM160900 35004KT 6SM -SHSN BKN030
     FM161300 34007KT 3SM -SHSN BKN025
     FM161600 36011KT 4SM -SHSN BKN025
     FM162100 36009KT P6SM BKN030=

USA.gov is the U.S. government's official web portal to all federal, state and local government web resources and services.